Grafton, VT (05146)

7:54 AM EDT on August 24, 2016 (GMT -0400)
APRSWXNET | | Change Station

Elev 1799 ft 43.11 °N, 72.68 °W | Updated 35 minutes ago

Mostly Cloudy
Mostly Cloudy
62 °F
Feels Like 62 °F
N
0
Wind Variable Wind from South
Gusts 0.0 mph

Today
High -- | Low -- °F
--% Chance of Precip.
Yesterday
High -- | Low -- °F
Precip. -- in
Pressure 30.29 in
Visibility 4.0 miles
Clouds Mostly Cloudy 200 ft
Dew Point 57 °F
Humidity 84%
Rainfall in
Snow Depth Not available.
6:06 AM 7:38 PM
Waning Gibbous, 58% visible
SPECI KVSF 241146Z AUTO 00000KT 4SM BR BKN002 12/12 A3029 RMK AO2 T01220117 TSNO
Pressure 30.29 in
Visibility 4.0 miles
Clouds Mostly Cloudy 200 ft
Dew Point 57 °F
Humidity 84%
Rainfall in
Snow Depth Not available.
6:06 AM 7:38 PM
Waning Gibbous, 58% visible
SPECI KVSF 241146Z AUTO 00000KT 4SM BR BKN002 12/12 A3029 RMK AO2 T01220117 TSNO

10-Day Weather Forecast

Almanac

Astronomy

Aug. 24, 2016 Rise Set
Actual Time
Civil Twilight
Nautical Twilight
Astronomical Twilight
Moon
Length of Visible Light
Length of Day
Tomorrow will be .
, % of the Moon is Illuminated

Today's Extremes

State Highs State Lows

Community

WunderPhotos

Upload Photos

1,934,571 photos uploaded!

WunderBlog® & News

Nearby

Air Quality

  Air Quality AQ Index Pollutant
Not available.

Snow Depth

Station Depth Elevation

Earthquake Activity

City Distance Mag. Time & Date
Minimum magnitude displayed is 2.5.

Coastal Water Temperatures

Place Temperature

Stations

Nearby Weather Stations

Station Location Temp. Windchill Dew Point Humidity Wind Precip. Elev Updated Type
                   

Watches & Warnings

There are currently no watches in effect.